Time;durP1;ratioP1;P1;durP2;ratioP2;P2;SDS_P1;SDS_P2;PMS_P1;PMS_P2;Temp;Humidity;BMP_temperature;BMP_pressure;BME280_temperature;BME280_humidity;BME280_pressure;Samples;Min_cycle;Max_cycle;Signal;HPM_P1;HPM_P2
2022/06/21 00:00:15;;;;;;;2.65;1.42;;;;;;;22.85;42.78;98391.83;1704473;82;21031;-67
2022/06/21 00:02:42;;;;;;;5.42;1.70;;;;;;;22.82;42.78;98390.69;1701838;83;21611;-66
2022/06/21 00:05:25;;;;;;;4.58;1.75;;;;;;;22.81;42.88;98391.13;1704622;82;22192;-67
2022/06/21 00:07:51;;;;;;;2.60;1.50;;;;;;;22.77;42.81;98382.77;1695970;83;21467;-67
2022/06/21 00:10:19;;;;;;;3.70;1.60;;;;;;;22.75;42.75;98383.80;1698768;83;21109;-67
2022/06/21 00:12:47;;;;;;;5.70;2.02;;;;;;;22.73;42.80;98377.82;1699001;83;21055;-67
2022/06/21 00:15:14;;;;;;;3.67;1.75;;;;;;;22.71;42.61;98374.65;1696664;83;21012;-66
2022/06/21 00:17:47;;;;;;;2.80;1.42;;;;;;;22.68;42.64;98374.11;1698082;83;21114;-66
2022/06/21 00:20:18;;;;;;;2.37;1.40;;;;;;;22.68;42.66;98374.11;1696144;83;21013;-66
2022/06/21 00:22:45;;;;;;;5.75;1.57;;;;;;;22.64;42.62;98373.41;1669125;83;21096;-67
2022/06/21 00:25:26;;;;;;;6.00;1.70;;;;;;;22.61;42.56;98370.23;1687693;83;21016;-67
2022/06/21 00:27:53;;;;;;;3.98;1.70;;;;;;;22.59;42.71;98365.62;1699803;83;21075;-67
2022/06/21 00:30:20;;;;;;;5.53;1.82;;;;;;;22.55;42.67;98357.91;1698793;83;21146;-67
2022/06/21 00:32:49;;;;;;;3.58;1.72;;;;;;;22.50;42.47;98361.98;1685835;82;21114;-67
2022/06/21 00:35:17;;;;;;;3.35;1.52;;;;;;;22.48;42.29;98360.84;1706907;83;21083;-67
2022/06/21 00:37:46;;;;;;;1.82;1.55;;;;;;;22.45;42.24;98358.27;1697158;82;21061;-67
2022/06/21 00:40:27;;;;;;;6.10;1.92;;;;;;;22.44;42.16;98353.09;1680990;82;21043;-67
2022/06/21 00:43:10;;;;;;;2.12;1.60;;;;;;;22.42;42.18;98348.52;1672086;84;21871;-66
2022/06/21 00:45:40;;;;;;;6.00;1.72;;;;;;;22.40;42.13;98341.93;1732548;81;21038;-67
2022/06/21 00:48:36;;;;;;;3.98;1.60;;;;;;;22.38;41.99;98343.77;1706029;83;21078;-66
2022/06/21 00:51:24;;;;;;;5.30;1.52;;;;;;;22.37;41.89;98342.20;1733797;81;21516;-66
2022/06/21 00:53:58;;;;;;;5.45;2.20;;;;;;;22.36;41.85;98340.63;1735660;81;21007;-67
2022/06/21 00:56:35;;;;;;;4.62;1.90;;;;;;;22.34;41.75;98333.23;1709973;82;21142;-66
2022/06/21 00:59:23;;;;;;;2.87;1.82;;;;;;;22.33;41.65;98335.08;1706443;82;21098;-66
2022/06/21 01:01:52;;;;;;;5.80;1.67;;;;;;;22.32;41.55;98327.86;1706111;83;21539;-66
2022/06/21 01:04:37;;;;;;;3.52;2.00;;;;;;;22.31;41.19;98327.69;1711511;82;21071;-66
2022/06/21 01:07:07;;;;;;;8.73;1.90;;;;;;;22.29;41.17;98327.33;1704419;83;21504;-66
2022/06/21 01:09:39;;;;;;;2.65;1.72;;;;;;;22.30;41.27;98320.48;1706606;83;21772;-67
2022/06/21 01:12:15;;;;;;;2.60;1.50;;;;;;;22.28;41.27;98318.11;1705994;83;21071;-67
2022/06/21 01:14:49;;;;;;;10.15;1.82;;;;;;;22.28;41.19;98309.69;1691849;84;21016;-66
2022/06/21 01:17:15;;;;;;;2.50;1.47;;;;;;;22.29;41.11;98310.49;1693981;84;21032;-66
2022/06/21 01:19:49;;;;;;;6.33;1.70;;;;;;;22.28;40.89;98310.33;1698101;84;21068;-66
2022/06/21 01:22:47;;;;;;;5.10;1.90;;;;;;;22.27;40.96;98301.71;1707875;82;21341;-66
2022/06/21 01:25:43;;;;;;;3.27;1.52;;;;;;;22.27;40.93;98305.31;1656142;84;21087;-66
2022/06/21 01:28:09;;;;;;;3.25;1.37;;;;;;;22.24;40.99;98302.77;1732213;81;21642;-66
2022/06/21 01:30:37;;;;;;;5.05;1.55;;;;;;;22.22;40.88;98298.20;1733072;81;21107;-66
2022/06/21 01:33:06;;;;;;;3.08;1.82;;;;;;;22.22;40.93;98297.40;1681827;84;21079;-66
2022/06/21 01:35:48;;;;;;;5.80;1.75;;;;;;;22.21;41.06;98290.98;1686478;84;21643;-66
2022/06/21 01:38:22;;;;;;;2.45;1.35;;;;;;;22.18;40.96;98286.24;1703473;83;21010;-66
2022/06/21 01:40:51;;;;;;;3.25;1.50;;;;;;;22.17;41.08;98279.66;1721263;82;21516;-66
2022/06/21 01:43:24;;;;;;;4.03;1.85;;;;;;;22.15;41.20;98271.69;1710459;82;21019;-66
2022/06/21 01:45:56;;;;;;;5.75;1.72;;;;;;;22.15;41.51;98276.49;1719272;83;21536;-66
2022/06/21 01:48:31;;;;;;;8.68;1.90;;;;;;;22.13;41.57;98272.12;1721547;82;21122;-65
2022/06/21 01:51:06;;;;;;;4.87;1.85;;;;;;;22.11;41.63;98270.34;1707909;82;21054;-65
2022/06/21 01:53:33;;;;;;;3.37;2.10;;;;;;;22.09;41.67;98275.59;1694273;84;21571;-66
2022/06/21 01:56:05;;;;;;;5.47;2.27;;;;;;;22.08;41.91;98272.61;1705113;82;21019;-67
2022/06/21 01:58:34;;;;;;;5.47;1.90;;;;;;;22.08;42.01;98270.41;1694214;84;21020;-66
2022/06/21 02:01:06;;;;;;;3.55;1.57;;;;;;;22.06;42.20;98270.07;1721354;82;21774;-66
2022/06/21 02:03:36;;;;;;;3.27;2.00;;;;;;;22.05;42.38;98269.88;1745449;81;21059;-65
2022/06/21 02:06:07;;;;;;;4.47;2.20;;;;;;;22.03;42.52;98270.30;1748023;81;21524;-67
2022/06/21 02:08:57;;;;;;;5.20;2.47;;;;;;;22.02;42.74;98271.53;1741150;81;21027;-65
2022/06/21 02:11:36;;;;;;;4.45;2.00;;;;;;;22.00;42.72;98266.36;1737194;81;21585;-66
2022/06/21 02:16:52;;;;;;;4.03;2.08;;;;;;;21.95;42.42;98264.65;1744131;81;21099;-65
2022/06/21 02:19:41;;;;;;;4.03;1.75;;;;;;;21.92;42.47;98258.50;1723596;81;21020;-66
2022/06/21 02:22:20;;;;;;;4.22;1.90;;;;;;;21.89;42.50;98259.53;1748930;81;21063;-66
2022/06/21 02:24:47;;;;;;;5.28;2.20;;;;;;;21.86;42.47;98254.80;1752687;81;21063;-66
2022/06/21 02:27:17;;;;;;;6.40;1.60;;;;;;;21.84;42.59;98250.22;1751327;81;21235;-65
2022/06/21 02:29:48;;;;;;;4.53;2.12;;;;;;;21.83;42.68;98244.44;1752815;81;21019;-66
2022/06/21 02:32:27;;;;;;;6.40;1.85;;;;;;;21.83;42.75;98245.84;1751356;81;21083;-66
2022/06/21 02:35:06;;;;;;;1.90;1.30;;;;;;;21.84;42.82;98241.80;1751464;81;21044;-66
2022/06/21 02:37:34;;;;;;;4.87;2.40;;;;;;;21.83;42.95;98236.63;1748733;81;21068;-65
2022/06/21 02:40:03;;;;;;;5.75;1.90;;;;;;;21.82;43.22;98233.66;1750836;81;21583;-66
2022/06/21 02:42:32;;;;;;;8.78;1.98;;;;;;;21.81;43.23;98227.25;1752344;81;21119;-66
2022/06/21 02:45:08;;;;;;;1.75;1.45;;;;;;;21.80;43.26;98222.08;1752355;81;21031;-66
2022/06/21 02:47:40;;;;;;;5.67;1.65;;;;;;;21.79;43.15;98223.28;1720616;81;21059;-66
2022/06/21 02:50:34;;;;;;;4.95;2.00;;;;;;;21.79;43.52;98221.28;1752932;81;20989;-66
2022/06/21 02:53:01;;;;;;;3.10;1.50;;;;;;;21.79;43.63;98222.68;1749910;81;22213;-66
2022/06/21 02:55:39;;;;;;;5.55;1.80;;;;;;;21.80;43.70;98210.87;1752201;81;21090;-66
2022/06/21 02:58:27;;;;;;;5.95;2.00;;;;;;;21.80;43.77;98206.06;1751380;81;20996;-66
2022/06/21 03:00:53;;;;;;;5.97;1.70;;;;;;;21.81;43.74;98204.83;1754241;81;21474;-66
2022/06/21 03:03:23;;;;;;;1.87;1.50;;;;;;;21.81;43.86;98203.43;1754568;81;21031;-66
2022/06/21 03:05:52;;;;;;;2.80;1.92;;;;;;;21.81;43.92;98205.44;1755731;81;21599;-66
2022/06/21 03:08:19;;;;;;;2.67;1.87;;;;;;;21.81;44.07;98196.42;1727385;81;22188;-66
2022/06/21 03:10:47;;;;;;;4.08;2.08;;;;;;;21.82;44.22;98192.39;1754323;81;21008;-66
2022/06/21 03:13:24;;;;;;;6.60;1.95;;;;;;;21.86;44.06;98192.33;1747504;81;21039;-66
2022/06/21 03:15:56;;;;;;;6.53;1.98;;;;;;;21.87;44.23;98198.90;1749987;81;21008;-66
2022/06/21 03:18:27;;;;;;;11.83;2.23;;;;;;;21.86;44.24;98188.92;1699859;83;22101;-66
2022/06/21 03:20:56;;;;;;;7.22;1.82;;;;;;;21.89;44.57;98192.86;1687303;83;21059;-66
2022/06/21 03:23:22;;;;;;;7.80;2.17;;;;;;;21.89;44.95;98193.66;1681636;83;21068;-66
2022/06/21 03:25:59;;;;;;;5.25;1.90;;;;;;;21.91;45.20;98195.23;1684361;83;21111;-67
2022/06/21 03:28:33;;;;;;;5.92;1.98;;;;;;;21.91;44.92;98184.82;1682374;83;21508;-66
2022/06/21 03:31:10;;;;;;;4.10;2.02;;;;;;;21.92;44.88;98177.20;1671755;84;21120;-65
2022/06/21 03:33:40;;;;;;;5.55;2.20;;;;;;;21.93;44.99;98173.97;1674336;84;21065;-65
2022/06/21 03:36:11;;;;;;;4.30;2.22;;;;;;;21.94;44.94;98176.94;1683608;83;21547;-66
2022/06/21 03:38:42;;;;;;;7.08;2.25;;;;;;;21.96;44.91;98180.11;1657604;85;21149;-66
2022/06/21 03:44:26;;;;;;;6.35;2.15;;;;;;;22.00;44.82;98180.84;1672026;84;21063;-66
2022/06/21 03:47:10;;;;;;;8.35;2.20;;;;;;;22.02;44.82;98174.80;1672725;84;21237;-66
2022/06/21 03:50:12;;;;;;;6.30;2.08;;;;;;;22.04;45.02;98176.55;1679236;83;21013;-66
2022/06/21 03:53:01;;;;;;;5.50;1.90;;;;;;;22.06;44.95;98175.51;1677371;83;21095;-66
2022/06/21 03:55:59;;;;;;;4.53;2.27;;;;;;;22.09;45.32;98184.45;1724054;82;21628;-67
2022/06/21 03:59:03;;;;;;;12.58;2.80;;;;;;;22.12;45.32;98175.80;1718829;82;21159;-66
2022/06/21 04:01:38;;;;;;;4.75;2.27;;;;;;;22.16;45.49;98173.70;1691984;83;21059;-66
2022/06/21 04:04:34;;;;;;;3.87;2.20;;;;;;;22.20;45.39;98173.63;1667469;85;21135;-66
2022/06/21 04:07:28;;;;;;;5.78;2.10;;;;;;;22.24;44.92;98170.16;1650709;85;21096;-67
2022/06/21 04:10:03;;;;;;;9.67;2.47;;;;;;;22.26;44.99;98176.12;1658156;84;21065;-67
2022/06/21 04:12:54;;;;;;;9.50;2.47;;;;;;;22.31;45.35;98165.00;1666165;83;21570;-66
2022/06/21 04:15:44;;;;;;;6.33;2.35;;;;;;;22.36;45.70;98163.89;1726222;81;22199;-66
2022/06/21 04:18:22;;;;;;;3.98;2.17;;;;;;;22.41;45.80;98158.38;1719639;82;21607;-67
2022/06/21 04:21:00;;;;;;;4.30;2.08;;;;;;;22.46;45.77;98157.86;1697112;83;21025;-65
2022/06/21 04:23:46;;;;;;;8.03;2.70;;;;;;;22.50;45.88;98154.98;1726586;82;21059;-66
2022/06/21 04:26:45;;;;;;;4.45;2.30;;;;;;;22.57;45.67;98159.64;1692990;83;21262;-65
2022/06/21 04:29:32;;;;;;;3.20;2.10;;;;;;;22.60;45.62;98152.52;1677359;84;21464;-66
2022/06/21 04:32:10;;;;;;;4.00;2.05;;;;;;;22.66;45.49;98153.44;1694518;83;21044;-67
2022/06/21 04:34:50;;;;;;;4.28;2.10;;;;;;;22.70;45.92;98155.55;1731499;82;20989;-66
2022/06/21 04:37:28;;;;;;;4.85;2.10;;;;;;;22.74;45.64;98150.03;1720040;82;21513;-67
2022/06/21 04:40:06;;;;;;;3.98;2.25;;;;;;;22.80;45.46;98153.11;1731054;82;21670;-67
2022/06/21 04:43:13;;;;;;;3.10;2.10;;;;;;;22.84;45.46;98148.19;1689309;84;21039;-66
2022/06/21 04:46:00;;;;;;;9.30;2.77;;;;;;;22.91;45.56;98151.44;1695234;83;20993;-68
2022/06/21 04:48:52;;;;;;;6.42;2.40;;;;;;;22.98;46.02;98149.06;1732086;82;20996;-68
2022/06/21 04:51:35;;;;;;;10.40;2.20;;;;;;;23.03;45.98;98140.12;1730346;82;20948;-68
2022/06/21 04:54:06;;;;;;;;;;;;;;;23.08;45.72;98131.17;1731314;82;21690;-68
2022/06/21 04:57:11;;;;;;;9.00;2.37;;;;;;;23.14;45.71;98134.24;1718089;82;20122;-67
2022/06/21 04:59:45;;;;;;;11.80;2.25;;;;;;;23.20;46.30;98132.47;1734101;82;20985;-66
2022/06/21 05:02:17;;;;;;;2.62;1.87;;;;;;;23.29;46.21;98131.85;1730343;82;21524;-66
2022/06/21 05:04:43;;;;;;;5.72;2.05;;;;;;;23.37;46.16;98129.66;1726339;82;21053;-67
2022/06/21 05:07:15;;;;;;;4.47;2.20;;;;;;;23.43;46.49;98129.32;1730791;82;21188;-65
2022/06/21 05:09:42;;;;;;;4.72;1.98;;;;;;;23.51;45.75;98119.30;1706110;82;21056;-66
2022/06/21 05:12:21;;;;;;;6.47;2.40;;;;;;;23.59;45.83;98119.27;1729504;82;21521;-66
2022/06/21 05:14:51;;;;;;;4.65;1.98;;;;;;;23.66;45.40;98111.26;1690674;84;21071;-67
2022/06/21 05:17:18;;;;;;;6.42;2.47;;;;;;;23.74;46.03;98108.42;1692752;84;21041;-66
2022/06/21 05:19:51;;;;;;;3.37;2.20;;;;;;;23.82;46.47;98107.58;1726313;82;21347;-67
2022/06/21 05:22:24;;;;;;;5.53;2.50;;;;;;;23.90;46.33;98109.59;1717779;82;21176;-67
2022/06/21 05:24:51;;;;;;;7.20;1.98;;;;;;;23.96;46.18;98107.80;1763493;81;21011;-66
2022/06/21 05:27:29;;;;;;;6.12;2.27;;;;;;;24.03;46.25;98101.97;1757593;81;21072;-67
2022/06/21 05:30:18;;;;;;;7.62;2.40;;;;;;;24.10;45.90;98098.77;1744151;81;21625;-66
2022/06/21 05:32:54;;;;;;;6.78;2.33;;;;;;;24.17;45.39;98099.99;1727496;82;21243;-68
2022/06/21 05:35:27;;;;;;;8.23;2.40;;;;;;;24.23;45.31;98098.19;1727997;81;21068;-66
2022/06/21 05:38:01;;;;;;;7.67;2.58;;;;;;;24.30;45.41;98095.16;1757633;81;21465;-66
2022/06/21 05:40:48;;;;;;;;;;;;;;;24.37;46.10;98111.64;1750112;81;21532;-66
2022/06/21 05:43:19;;;;;;;6.40;2.80;;;;;;;24.43;46.01;98096.56;1748034;81;20257;-65
2022/06/21 05:45:57;;;;;;;5.37;2.45;;;;;;;24.49;45.80;98086.16;1718514;82;21092;-65
2022/06/21 05:48:25;;;;;;;10.25;2.83;;;;;;;24.55;46.25;98103.43;1679464;84;21019;-66
2022/06/21 05:50:52;;;;;;;9.83;2.75;;;;;;;24.62;46.51;98095.98;1716141;82;21056;-65
2022/06/21 05:53:33;;;;;;;9.33;2.72;;;;;;;24.68;46.04;98074.50;1718400;82;21059;-66
2022/06/21 05:56:10;;;;;;;3.02;2.15;;;;;;;24.75;46.96;98089.75;1718602;82;21269;-66
2022/06/21 05:58:47;;;;;;;8.25;2.58;;;;;;;24.84;47.46;98082.00;1715588;82;21300;-67
2022/06/21 06:01:41;;;;;;;4.60;2.40;;;;;;;24.92;47.21;98072.09;1697625;84;21063;-66
2022/06/21 06:04:38;;;;;;;5.45;2.47;;;;;;;25.01;46.93;98076.27;1685641;84;21102;-67
2022/06/21 06:07:06;;;;;;;7.22;2.42;;;;;;;25.07;46.39;98071.63;1753250;81;21048;-67
2022/06/21 06:09:41;;;;;;;7.47;2.50;;;;;;;25.14;46.76;98077.02;1754811;81;21019;-67
2022/06/21 06:12:21;;;;;;;7.25;3.10;;;;;;;25.20;47.42;98077.20;1716147;81;21168;-67
2022/06/21 06:15:01;;;;;;;7.47;2.42;;;;;;;25.26;46.61;98078.83;1744341;81;21031;-65
2022/06/21 06:17:36;;;;;;;5.72;2.75;;;;;;;25.30;47.51;98080.89;1705225;82;21047;-65
2022/06/21 06:20:18;;;;;;;3.58;2.42;;;;;;;25.37;47.72;98071.39;1706556;82;21583;-67
2022/06/21 06:23:12;;;;;;;6.95;2.40;;;;;;;25.43;47.31;98070.99;1744234;81;21031;-66
2022/06/21 06:25:48;;;;;;;8.43;2.60;;;;;;;25.51;47.67;98070.89;1756664;81;21841;-66
2022/06/21 06:28:43;;;;;;;6.17;2.80;;;;;;;25.60;47.71;98077.84;1696351;83;21033;-66
2022/06/21 06:31:27;;;;;;;6.80;2.30;;;;;;;25.66;48.52;98073.84;1694134;83;21061;-66
2022/06/21 06:34:06;;;;;;;8.80;3.03;;;;;;;25.71;48.07;98075.44;1704313;82;21702;-67
2022/06/21 06:36:39;;;;;;;8.95;2.35;;;;;;;25.77;47.88;98071.41;1753462;81;21106;-67
2022/06/21 06:39:30;;;;;;;7.45;2.35;;;;;;;25.81;47.76;98069.23;1748627;81;21183;-66
2022/06/21 06:42:17;;;;;;;5.35;2.30;;;;;;;25.86;48.09;98065.05;1754691;81;21108;-67
2022/06/21 06:44:55;;;;;;;9.73;2.70;;;;;;;25.91;47.66;98060.84;1754623;81;21059;-67
2022/06/21 06:47:33;;;;;;;8.83;2.95;;;;;;;25.95;47.96;98055.22;1749326;81;21551;-67
2022/06/21 06:50:07;;;;;;;5.47;2.95;;;;;;;26.01;48.57;98054.80;1724098;81;21647;-67
2022/06/21 06:52:47;;;;;;;7.80;3.08;;;;;;;26.09;49.04;98048.86;1745679;81;21312;-67
2022/06/21 06:55:46;;;;;;;4.33;2.55;;;;;;;26.15;49.38;98039.97;1744538;81;21079;-67
2022/06/21 06:58:30;;;;;;;10.95;3.17;;;;;;;26.24;48.58;98042.81;1750214;81;21047;-68
2022/06/21 07:01:13;;;;;;;6.42;3.42;;;;;;;26.34;49.24;98049.30;1753654;81;20996;-67
2022/06/21 07:03:58;;;;;;;10.30;2.72;;;;;;;26.41;49.79;98048.23;1734850;81;21029;-67
2022/06/21 07:06:43;;;;;;;7.65;2.90;;;;;;;26.51;50.17;98049.69;1753235;81;21212;-66
2022/06/21 07:09:25;;;;;;;4.78;2.95;;;;;;;26.61;49.71;98045.64;1748874;81;21009;-67
2022/06/21 07:12:16;;;;;;;8.35;2.85;;;;;;;26.68;49.28;98041.73;1753940;81;20984;-66
2022/06/21 07:14:45;;;;;;;7.90;3.02;;;;;;;26.72;49.00;98038.91;1757380;81;21047;-67
2022/06/21 07:17:33;;;;;;;10.45;3.70;;;;;;;26.81;49.72;98043.00;1758726;81;21023;-67
2022/06/21 07:20:02;;;;;;;6.37;3.08;;;;;;;26.91;49.52;98033.91;1721784;81;21285;-66
2022/06/21 07:22:34;;;;;;;11.70;3.70;;;;;;;27.01;49.29;98035.49;1755806;81;21055;-67
2022/06/21 07:25:21;;;;;;;7.70;3.00;;;;;;;27.05;49.04;98038.99;1763976;81;21024;-67
2022/06/21 07:27:56;;;;;;;8.45;3.65;;;;;;;27.13;49.67;98040.87;1764527;81;21094;-67
2022/06/21 07:30:28;;;;;;;8.33;3.60;;;;;;;27.24;50.21;98032.55;1763829;81;21031;-67
2022/06/21 07:33:00;;;;;;;8.10;3.15;;;;;;;27.34;50.75;98039.77;1737663;81;21757;-68
2022/06/21 07:35:35;;;;;;;8.55;3.50;;;;;;;27.45;50.40;98034.42;1756256;81;21058;-67
2022/06/21 07:38:22;;;;;;;9.55;3.35;;;;;;;27.58;50.92;98036.30;1761482;81;20991;-67
2022/06/21 07:40:59;;;;;;;6.55;3.50;;;;;;;27.66;49.48;98031.88;1762668;81;20996;-67
2022/06/21 07:43:37;;;;;;;11.30;3.65;;;;;;;27.69;48.24;98032.98;1763320;81;21523;-68
2022/06/21 07:46:07;;;;;;;15.48;4.20;;;;;;;27.70;48.97;98026.89;1762251;81;21118;-72
2022/06/21 07:48:56;;;;;;;11.95;3.87;;;;;;;27.74;48.63;98028.11;1764133;81;21040;-68
2022/06/21 07:51:36;;;;;;;8.98;3.70;;;;;;;27.78;48.96;98018.84;1760342;81;21086;-66
2022/06/21 07:54:17;;;;;;;12.35;3.40;;;;;;;27.83;49.17;98008.92;1762553;81;20976;-67
2022/06/21 07:56:49;;;;;;;8.90;3.37;;;;;;;27.87;48.63;98020.07;1763152;81;21062;-67
2022/06/21 07:59:20;;;;;;;5.65;2.98;;;;;;;27.88;48.87;98023.84;1752301;81;21170;-67
2022/06/21 08:07:46;;;;;;;8.03;3.70;;;;;;;28.08;49.60;98014.02;1758744;81;21544;-66
2022/06/21 08:10:21;;;;;;;7.70;4.00;;;;;;;28.22;50.36;98014.61;1763265;81;21043;-66
2022/06/21 08:12:49;;;;;;;10.90;3.15;;;;;;;28.31;50.80;98014.55;1755518;81;21119;-66
2022/06/21 08:15:16;;;;;;;7.33;3.00;;;;;;;28.40;49.54;98013.76;1761922;81;20992;-67
2022/06/21 08:17:51;;;;;;;15.75;4.03;;;;;;;28.36;48.14;98004.64;1763074;81;21501;-67
2022/06/21 08:20:24;;;;;;;7.08;3.08;;;;;;;28.35;49.27;98008.12;1750168;81;21050;-66
2022/06/21 08:23:08;;;;;;;10.10;3.67;;;;;;;28.42;49.78;98012.00;1752448;81;21046;-66
2022/06/21 08:25:51;;;;;;;10.90;3.08;;;;;;;28.50;50.15;98013.07;1749156;81;21890;-73
2022/06/21 08:28:35;;;;;;;6.70;2.95;;;;;;;28.62;47.70;98012.69;1748934;81;21016;-67
2022/06/21 08:31:08;;;;;;;5.67;3.37;;;;;;;28.68;47.86;98007.30;1756106;81;21000;-67
2022/06/21 08:33:55;;;;;;;14.33;4.17;;;;;;;28.76;48.07;98006.94;1756310;81;21023;-66
2022/06/21 08:36:45;;;;;;;6.03;2.80;;;;;;;28.83;47.83;98007.20;1756594;81;21040;-67
2022/06/21 08:39:31;;;;;;;8.80;2.90;;;;;;;28.92;47.43;98007.91;1759114;81;21213;-67
2022/06/21 08:42:25;;;;;;;11.50;3.25;;;;;;;29.01;46.95;98005.67;1756732;81;21052;-67
2022/06/21 08:48:29;;;;;;;7.87;3.42;;;;;;;29.08;47.10;97996.02;1753010;81;20980;-67
2022/06/21 08:51:32;;;;;;;5.50;2.50;;;;;;;29.08;47.09;97998.84;1755473;81;21044;-66
2022/06/21 08:54:26;;;;;;;3.00;2.12;;;;;;;29.18;47.29;97988.21;1757816;81;21158;-67
2022/06/21 08:57:29;;;;;;;9.08;3.15;;;;;;;29.30;45.25;97999.75;1759632;81;21004;-67
2022/06/21 09:00:12;;;;;;;6.70;3.00;;;;;;;29.39;45.40;98000.45;1751526;81;21024;-68
2022/06/21 09:03:18;;;;;;;11.63;3.33;;;;;;;29.52;44.50;97997.97;1754958;81;20996;-66
2022/06/21 09:06:17;;;;;;;7.37;2.75;;;;;;;29.61;44.30;97997.92;1759081;81;21103;-66
2022/06/21 09:09:20;;;;;;;7.42;3.17;;;;;;;29.68;44.02;97998.79;1754595;81;21132;-66
2022/06/21 09:12:29;;;;;;;8.10;2.83;;;;;;;29.74;42.92;97991.94;1758616;81;21461;-66
2022/06/21 09:15:25;;;;;;;7.53;3.33;;;;;;;29.73;43.13;97988.97;1740869;81;21040;-67
2022/06/21 09:18:26;;;;;;;8.75;3.15;;;;;;;29.72;43.69;97993.72;1758404;81;21059;-67
2022/06/21 09:21:32;;;;;;;17.67;3.87;;;;;;;29.82;44.05;97986.63;1759507;81;21067;-66
2022/06/21 09:24:09;;;;;;;8.98;2.98;;;;;;;29.97;44.58;97980.97;1752791;81;21119;-67
2022/06/21 09:27:11;;;;;;;6.97;2.60;;;;;;;30.04;44.19;97978.98;1724703;81;21043;-68
2022/06/21 09:29:56;;;;;;;3.35;2.70;;;;;;;30.05;44.06;97976.28;1756312;81;21361;-68
2022/06/21 09:32:43;;;;;;;8.85;2.30;;;;;;;30.11;45.67;97968.00;1745545;81;21476;-67
2022/06/21 09:35:48;;;;;;;10.38;3.05;;;;;;;30.30;44.75;97967.02;1754448;81;21496;-66
2022/06/21 09:38:25;;;;;;;4.58;2.92;;;;;;;30.43;43.95;97971.71;1741734;81;21215;-65
2022/06/21 09:41:22;;;;;;;7.45;2.58;;;;;;;30.49;43.51;97965.46;1751195;81;21075;-67
2022/06/21 09:44:24;;;;;;;9.80;3.00;;;;;;;30.56;43.69;97962.84;1639923;86;21027;-65
2022/06/21 09:47:22;;;;;;;4.53;2.58;;;;;;;30.64;43.53;97950.39;1742542;81;21032;-66
2022/06/21 09:50:12;;;;;;;6.85;2.40;;;;;;;30.67;43.31;97954.31;1753696;80;21114;-66
2022/06/21 09:53:17;;;;;;;10.63;2.60;;;;;;;30.52;41.12;97954.39;1747593;81;21729;-67
2022/06/21 09:56:00;;;;;;;9.00;3.02;;;;;;;30.32;42.05;97961.59;1748440;81;21528;-67
2022/06/21 09:58:46;;;;;;;10.65;3.00;;;;;;;30.08;41.98;97955.42;1748552;81;21036;-67
2022/06/21 10:01:35;;;;;;;7.08;2.22;;;;;;;29.88;41.77;97947.80;1747031;81;21027;-67
2022/06/21 10:04:33;;;;;;;4.78;2.60;;;;;;;29.71;42.11;97943.91;1754569;81;21583;-67
2022/06/21 10:07:26;;;;;;;5.20;2.40;;;;;;;29.64;43.08;97946.50;1754922;81;21774;-66
2022/06/21 10:10:20;;;;;;;8.33;2.58;;;;;;;29.53;43.28;97944.25;1720504;83;21029;-67
2022/06/21 10:13:21;;;;;;;13.20;3.15;;;;;;;29.32;43.50;97958.32;1755407;81;21584;-66
2022/06/21 10:16:19;;;;;;;14.65;3.27;;;;;;;29.04;44.40;97962.81;1756718;81;21528;-67
2022/06/21 10:19:03;;;;;;;14.55;3.40;;;;;;;28.68;44.95;97964.02;1750688;81;21044;-66
2022/06/21 10:22:07;;;;;;;10.68;3.35;;;;;;;28.40;46.25;97952.89;1754076;81;21221;-67
2022/06/21 10:25:02;;;;;;;15.68;4.40;;;;;;;28.17;47.33;97963.05;1752030;81;21038;-67
2022/06/21 10:27:50;;;;;;;18.67;3.67;;;;;;;27.97;48.27;97969.89;1738218;81;21368;-66
2022/06/21 10:30:32;;;;;;;18.92;3.70;;;;;;;27.64;49.00;97958.66;1738925;81;21000;-66
2022/06/21 10:33:21;;;;;;;13.88;3.87;;;;;;;27.38;49.63;97957.64;1734589;81;21055;-67
2022/06/21 10:36:24;;;;;;;12.40;3.47;;;;;;;27.26;50.85;97962.22;1739204;81;21493;-66
2022/06/21 10:39:18;;;;;;;14.87;3.22;;;;;;;27.03;51.25;97963.00;1753232;81;21659;-67
2022/06/21 10:45:15;;;;;;;17.67;3.45;;;;;;;26.69;52.81;97982.58;1753331;81;21087;-67
2022/06/21 10:48:03;;;;;;;11.80;4.55;;;;;;;26.42;53.11;97991.16;1752841;81;21015;-66
2022/06/21 10:50:47;;;;;;;17.00;3.42;;;;;;;26.18;53.57;97988.86;1744188;81;21125;-67
2022/06/21 10:53:23;;;;;;;10.38;3.00;;;;;;;26.01;54.30;97998.38;1737050;81;21027;-66
2022/06/21 11:02:28;;;;;;;9.98;4.15;;;;;;;25.89;54.42;97996.43;1680186;81;20132;-66
2022/06/21 11:05:23;;;;;;;12.88;3.72;;;;;;;25.95;54.75;98010.09;1736457;81;21204;-66
2022/06/21 11:08:30;;;;;;;6.03;3.40;;;;;;;25.98;54.68;98012.62;1750616;81;21986;-66
2022/06/21 11:11:05;;;;;;;12.43;4.50;;;;;;;25.97;54.85;98002.56;1757716;81;21540;-66
2022/06/21 11:13:40;;;;;;;17.32;3.92;;;;;;;26.01;54.91;98015.30;1760853;81;21649;-66
2022/06/21 11:16:19;;;;;;;8.58;3.58;;;;;;;26.02;55.57;98017.48;1756042;81;20980;-66
2022/06/21 11:19:20;;;;;;;9.30;4.33;;;;;;;26.00;55.77;98022.17;1759581;81;21209;-66
2022/06/21 11:22:15;;;;;;;12.18;4.80;;;;;;;26.04;55.94;98015.60;1760253;81;21040;-66
2022/06/21 11:24:53;;;;;;;14.40;5.40;;;;;;;26.03;56.63;98014.84;1760620;81;21000;-66
2022/06/21 11:27:36;;;;;;;14.03;5.15;;;;;;;25.99;56.94;98003.69;1728905;81;21034;-66
2022/06/21 11:30:12;;;;;;;12.98;5.65;;;;;;;25.96;57.23;98000.39;1689160;84;21087;-66
2022/06/21 11:33:03;;;;;;;11.50;5.05;;;;;;;25.82;57.73;98009.39;1710827;82;21027;-66
2022/06/21 11:35:44;;;;;;;16.17;5.50;;;;;;;25.70;57.84;98016.69;1705268;83;21043;-67
2022/06/21 11:38:52;;;;;;;13.50;6.97;;;;;;;25.55;57.71;98033.33;1757150;81;21536;-66
2022/06/21 11:45:01;;;;;;;23.45;3.47;;;;;;;24.66;57.41;98107.33;1749600;81;21489;-66
2022/06/21 11:48:07;;;;;;;19.98;2.30;;;;;;;23.90;56.83;98134.26;1659102;85;22171;-66
2022/06/21 11:51:13;;;;;;;16.23;3.10;;;;;;;23.25;58.60;98149.43;1746646;81;21035;-66
2022/06/21 11:53:51;;;;;;;7.62;2.55;;;;;;;22.89;61.60;98177.78;1749970;81;21008;-66
2022/06/21 11:56:31;;;;;;;10.48;2.00;;;;;;;22.38;65.27;98164.22;1757661;81;21020;-68
2022/06/21 11:59:12;;;;;;;8.40;2.12;;;;;;;22.04;66.87;98176.55;1717598;81;21000;-66
2022/06/21 12:02:03;;;;;;;5.05;1.77;;;;;;;21.78;67.68;98181.84;1751095;81;21551;-67
2022/06/21 12:04:42;;;;;;;9.23;2.00;;;;;;;21.64;68.23;98178.09;1751648;81;21079;-66
2022/06/21 12:07:18;;;;;;;4.65;1.20;;;;;;;21.46;69.06;98177.63;1745469;81;22069;-66
2022/06/21 12:10:16;;;;;;;4.90;1.20;;;;;;;21.32;69.79;98201.86;1747013;81;21003;-65
2022/06/21 12:12:59;;;;;;;2.17;1.10;;;;;;;21.21;69.99;98211.02;1758170;81;21078;-68
2022/06/21 12:16:03;;;;;;;2.60;1.00;;;;;;;21.04;70.19;98213.69;1752585;81;21645;-67
2022/06/21 12:18:32;;;;;;;2.20;0.72;;;;;;;20.84;70.86;98202.37;1748622;81;21037;-65
2022/06/21 12:21:12;;;;;;;1.60;0.85;;;;;;;20.39;71.99;98195.78;1743979;81;21000;-67
2022/06/21 12:23:58;;;;;;;0.78;0.57;;;;;;;20.20;72.89;98207.80;1740613;81;21481;-65
2022/06/21 12:26:26;;;;;;;1.62;0.80;;;;;;;20.08;73.06;98191.59;1755251;81;21087;-66
2022/06/21 12:28:54;;;;;;;1.67;0.90;;;;;;;19.75;73.59;98176.54;1735921;81;21094;-67
2022/06/21 12:31:34;;;;;;;1.87;1.05;;;;;;;19.57;74.64;98170.52;1736625;81;21035;-68
2022/06/21 12:34:31;;;;;;;1.22;0.88;;;;;;;19.40;74.64;98185.64;1742010;81;21095;-66
2022/06/21 12:37:08;;;;;;;1.92;0.95;;;;;;;19.28;75.54;98189.73;1750609;81;21043;-67
2022/06/21 12:39:45;;;;;;;2.62;0.85;;;;;;;19.19;75.93;98186.02;1741779;81;21087;-66
2022/06/21 12:42:50;;;;;;;7.35;1.10;;;;;;;19.12;75.75;98202.05;1741427;81;21193;-66
2022/06/21 12:45:55;;;;;;;2.42;0.85;;;;;;;19.14;76.05;98198.25;1736869;81;21051;-66
2022/06/21 12:48:48;;;;;;;1.57;1.02;;;;;;;19.23;76.31;98202.74;1741973;81;21043;-66
2022/06/21 12:51:41;;;;;;;2.05;1.00;;;;;;;19.31;75.76;98204.89;1745087;81;21065;-67
2022/06/21 12:54:25;;;;;;;1.45;0.85;;;;;;;19.33;75.76;98193.48;1739838;81;21065;-66
2022/06/21 12:57:19;;;;;;;1.98;0.70;;;;;;;19.42;76.40;98198.60;1741579;81;21000;-66
2022/06/21 13:00:10;;;;;;;2.92;1.10;;;;;;;19.52;75.75;98196.91;1737679;81;20993;-66
2022/06/21 13:03:15;;;;;;;1.90;0.90;;;;;;;19.62;75.39;98199.41;1741945;81;21055;-66
2022/06/21 13:06:18;;;;;;;2.58;0.80;;;;;;;19.67;75.29;98181.42;1741255;81;21030;-66